Adams, Oklahoma
Current Conditions -  °F | °C
As of 9:15 AM on Wednesday 26 Nov 2014 (Local Time) from KLBL Reporting Station
Clear Clear  
Wind Chill: -3°   Ceiling: Unl
Heat Index:   Visibility: 10mi
Dew Point: -2°   Wind: 18mph
Humidity: 70%   Direction: 300°WNW
Pressure: 30.27"   Gusts: 26mph
Location:  36.76°N, 101.08°W
Report Text: KLBL 261515Z AUTO 30016G23KT 10SM CLR 03/M02 A3027 RMK AO1
Loading
Personal Weather Stations






























Interactive Weather Map New forecast layout! Learn more

10-Day Weather Forecast

Advertisements
Track Severe Weather on mobile